sensor_id;sensor_type;location;lat;lon;timestamp;P1;durP1;ratioP1;P2;durP2;ratioP2
55328;SDS011;41205;44.264;19.884;2022-11-25T00:01:59;17.38;;;10.70;;
55328;SDS011;41205;44.264;19.884;2022-11-25T00:04:25;27.60;;;17.55;;
55328;SDS011;41205;44.264;19.884;2022-11-25T00:06:53;21.88;;;13.18;;
55328;SDS011;41205;44.264;19.884;2022-11-25T00:09:18;13.15;;;5.88;;
55328;SDS011;41205;44.264;19.884;2022-11-25T00:11:44;8.55;;;5.78;;
55328;SDS011;41205;44.264;19.884;2022-11-25T00:14:11;10.88;;;5.57;;
55328;SDS011;41205;44.264;19.884;2022-11-25T00:16:39;10.13;;;6.05;;
55328;SDS011;41205;44.264;19.884;2022-11-25T00:19:04;10.85;;;6.28;;
55328;SDS011;41205;44.264;19.884;2022-11-25T00:21:31;16.80;;;11.73;;
55328;SDS011;41205;44.264;19.884;2022-11-25T00:24:00;13.20;;;8.30;;
55328;SDS011;41205;44.264;19.884;2022-11-25T00:26:27;13.02;;;7.55;;
55328;SDS011;41205;44.264;19.884;2022-11-25T00:28:57;10.45;;;6.10;;
55328;SDS011;41205;44.264;19.884;2022-11-25T00:31:25;10.75;;;6.90;;
55328;SDS011;41205;44.264;19.884;2022-11-25T00:33:52;11.07;;;6.40;;
55328;SDS011;41205;44.264;19.884;2022-11-25T00:36:22;16.10;;;9.65;;
55328;SDS011;41205;44.264;19.884;2022-11-25T00:39:14;82.88;;;47.58;;
55328;SDS011;41205;44.264;19.884;2022-11-25T00:41:40;31.83;;;18.33;;
55328;SDS011;41205;44.264;19.884;2022-11-25T00:44:25;14.93;;;7.82;;
55328;SDS011;41205;44.264;19.884;2022-11-25T00:47:03;10.25;;;6.80;;
55328;SDS011;41205;44.264;19.884;2022-11-25T00:49:31;12.02;;;6.22;;
55328;SDS011;41205;44.264;19.884;2022-11-25T00:51:57;10.93;;;7.15;;
55328;SDS011;41205;44.264;19.884;2022-11-25T00:54:23;12.30;;;5.80;;
55328;SDS011;41205;44.264;19.884;2022-11-25T00:56:49;8.93;;;5.18;;
55328;SDS011;41205;44.264;19.884;2022-11-25T00:59:15;12.52;;;7.60;;
55328;SDS011;41205;44.264;19.884;2022-11-25T01:01:41;9.70;;;5.93;;
55328;SDS011;41205;44.264;19.884;2022-11-25T01:04:07;9.95;;;7.13;;
55328;SDS011;41205;44.264;19.884;2022-11-25T01:06:33;8.55;;;6.57;;
55328;SDS011;41205;44.264;19.884;2022-11-25T01:09:00;12.40;;;7.38;;
55328;SDS011;41205;44.264;19.884;2022-11-25T01:11:26;17.65;;;8.30;;
55328;SDS011;41205;44.264;19.884;2022-11-25T01:13:52;19.98;;;14.18;;
55328;SDS011;41205;44.264;19.884;2022-11-25T01:16:20;22.67;;;14.75;;
55328;SDS011;41205;44.264;19.884;2022-11-25T01:18:47;10.45;;;6.97;;
55328;SDS011;41205;44.264;19.884;2022-11-25T01:21:24;10.60;;;6.90;;
55328;SDS011;41205;44.264;19.884;2022-11-25T01:23:52;8.25;;;6.28;;
55328;SDS011;41205;44.264;19.884;2022-11-25T01:26:19;13.82;;;8.77;;
55328;SDS011;41205;44.264;19.884;2022-11-25T01:28:47;10.65;;;6.32;;
55328;SDS011;41205;44.264;19.884;2022-11-25T01:31:18;12.43;;;6.53;;
55328;SDS011;41205;44.264;19.884;2022-11-25T01:33:46;8.20;;;4.95;;
55328;SDS011;41205;44.264;19.884;2022-11-25T01:36:16;13.18;;;6.90;;
55328;SDS011;41205;44.264;19.884;2022-11-25T01:38:42;17.27;;;10.20;;
55328;SDS011;41205;44.264;19.884;2022-11-25T01:41:10;11.60;;;7.70;;
55328;SDS011;41205;44.264;19.884;2022-11-25T01:43:38;10.80;;;6.00;;
55328;SDS011;41205;44.264;19.884;2022-11-25T01:48:40;13.32;;;7.57;;
55328;SDS011;41205;44.264;19.884;2022-11-25T01:51:16;10.52;;;6.05;;
55328;SDS011;41205;44.264;19.884;2022-11-25T01:53:48;12.30;;;6.50;;
55328;SDS011;41205;44.264;19.884;2022-11-25T01:56:14;11.18;;;6.13;;
55328;SDS011;41205;44.264;19.884;2022-11-25T01:58:41;9.73;;;6.55;;
55328;SDS011;41205;44.264;19.884;2022-11-25T02:01:08;11.98;;;7.93;;
55328;SDS011;41205;44.264;19.884;2022-11-25T02:03:36;11.32;;;7.40;;
55328;SDS011;41205;44.264;19.884;2022-11-25T02:06:13;15.52;;;8.77;;
55328;SDS011;41205;44.264;19.884;2022-11-25T02:08:47;18.85;;;11.95;;
55328;SDS011;41205;44.264;19.884;2022-11-25T02:11:14;37.75;;;24.42;;
55328;SDS011;41205;44.264;19.884;2022-11-25T02:13:41;13.80;;;10.45;;
55328;SDS011;41205;44.264;19.884;2022-11-25T02:16:09;34.13;;;30.73;;
55328;SDS011;41205;44.264;19.884;2022-11-25T02:18:34;13.00;;;8.30;;
55328;SDS011;41205;44.264;19.884;2022-11-25T02:21:00;15.68;;;9.63;;
55328;SDS011;41205;44.264;19.884;2022-11-25T02:26:06;43.83;;;27.17;;
55328;SDS011;41205;44.264;19.884;2022-11-25T02:28:32;11.88;;;8.07;;
55328;SDS011;41205;44.264;19.884;2022-11-25T02:30:59;27.70;;;14.32;;
55328;SDS011;41205;44.264;19.884;2022-11-25T02:33:25;9.75;;;7.20;;
55328;SDS011;41205;44.264;19.884;2022-11-25T02:35:53;31.27;;;18.10;;
55328;SDS011;41205;44.264;19.884;2022-11-25T02:38:41;33.22;;;16.52;;
55328;SDS011;41205;44.264;19.884;2022-11-25T02:43:56;15.80;;;8.05;;
55328;SDS011;41205;44.264;19.884;2022-11-25T02:46:23;15.45;;;9.70;;
55328;SDS011;41205;44.264;19.884;2022-11-25T02:48:50;12.15;;;8.35;;
55328;SDS011;41205;44.264;19.884;2022-11-25T02:51:18;12.50;;;7.57;;
55328;SDS011;41205;44.264;19.884;2022-11-25T02:53:46;16.02;;;9.43;;
55328;SDS011;41205;44.264;19.884;2022-11-25T02:56:12;11.23;;;6.55;;
55328;SDS011;41205;44.264;19.884;2022-11-25T02:58:38;12.07;;;7.72;;
55328;SDS011;41205;44.264;19.884;2022-11-25T03:01:05;10.48;;;6.28;;
55328;SDS011;41205;44.264;19.884;2022-11-25T03:03:31;10.82;;;7.13;;
55328;SDS011;41205;44.264;19.884;2022-11-25T03:05:56;10.23;;;7.18;;
55328;SDS011;41205;44.264;19.884;2022-11-25T03:08:22;11.73;;;6.97;;
55328;SDS011;41205;44.264;19.884;2022-11-25T03:10:48;9.52;;;6.30;;
55328;SDS011;41205;44.264;19.884;2022-11-25T03:13:14;15.88;;;10.68;;
55328;SDS011;41205;44.264;19.884;2022-11-25T03:15:39;10.75;;;6.25;;
55328;SDS011;41205;44.264;19.884;2022-11-25T03:18:05;10.65;;;5.97;;
55328;SDS011;41205;44.264;19.884;2022-11-25T03:20:32;8.20;;;5.72;;
55328;SDS011;41205;44.264;19.884;2022-11-25T03:22:59;7.32;;;5.63;;
55328;SDS011;41205;44.264;19.884;2022-11-25T03:25:25;8.27;;;5.70;;
55328;SDS011;41205;44.264;19.884;2022-11-25T03:27:51;11.38;;;7.00;;
55328;SDS011;41205;44.264;19.884;2022-11-25T03:30:18;9.32;;;6.53;;
55328;SDS011;41205;44.264;19.884;2022-11-25T03:32:46;12.63;;;6.85;;
55328;SDS011;41205;44.264;19.884;2022-11-25T03:35:11;10.48;;;7.30;;
55328;SDS011;41205;44.264;19.884;2022-11-25T03:37:38;15.70;;;9.43;;
55328;SDS011;41205;44.264;19.884;2022-11-25T03:40:05;9.27;;;6.28;;
55328;SDS011;41205;44.264;19.884;2022-11-25T03:42:32;7.55;;;5.38;;
55328;SDS011;41205;44.264;19.884;2022-11-25T03:44:57;8.60;;;5.30;;
55328;SDS011;41205;44.264;19.884;2022-11-25T03:47:23;7.28;;;4.65;;
55328;SDS011;41205;44.264;19.884;2022-11-25T03:49:49;7.38;;;5.30;;
55328;SDS011;41205;44.264;19.884;2022-11-25T03:52:15;6.60;;;5.03;;
55328;SDS011;41205;44.264;19.884;2022-11-25T03:54:41;9.55;;;5.35;;
55328;SDS011;41205;44.264;19.884;2022-11-25T03:57:06;10.77;;;5.65;;
55328;SDS011;41205;44.264;19.884;2022-11-25T03:59:32;8.93;;;6.32;;
55328;SDS011;41205;44.264;19.884;2022-11-25T04:01:58;15.60;;;7.18;;
55328;SDS011;41205;44.264;19.884;2022-11-25T04:04:24;12.80;;;9.10;;
55328;SDS011;41205;44.264;19.884;2022-11-25T04:06:50;12.63;;;8.80;;
55328;SDS011;41205;44.264;19.884;2022-11-25T04:09:15;9.38;;;6.20;;
55328;SDS011;41205;44.264;19.884;2022-11-25T04:11:41;11.88;;;5.65;;
55328;SDS011;41205;44.264;19.884;2022-11-25T04:14:25;11.95;;;5.85;;
55328;SDS011;41205;44.264;19.884;2022-11-25T04:16:51;9.18;;;6.10;;
55328;SDS011;41205;44.264;19.884;2022-11-25T04:19:17;7.95;;;5.63;;
55328;SDS011;41205;44.264;19.884;2022-11-25T04:21:43;11.05;;;5.78;;
55328;SDS011;41205;44.264;19.884;2022-11-25T04:24:08;9.20;;;6.03;;
55328;SDS011;41205;44.264;19.884;2022-11-25T04:26:34;8.85;;;5.82;;
55328;SDS011;41205;44.264;19.884;2022-11-25T04:29:00;9.18;;;6.30;;
55328;SDS011;41205;44.264;19.884;2022-11-25T04:31:26;10.50;;;8.18;;
55328;SDS011;41205;44.264;19.884;2022-11-25T04:33:51;9.63;;;5.88;;
55328;SDS011;41205;44.264;19.884;2022-11-25T04:36:17;9.93;;;5.82;;
55328;SDS011;41205;44.264;19.884;2022-11-25T04:38:43;8.63;;;5.63;;
55328;SDS011;41205;44.264;19.884;2022-11-25T04:41:08;11.00;;;6.63;;
55328;SDS011;41205;44.264;19.884;2022-11-25T04:43:34;7.60;;;6.25;;
55328;SDS011;41205;44.264;19.884;2022-11-25T04:46:00;8.82;;;5.47;;
55328;SDS011;41205;44.264;19.884;2022-11-25T04:48:26;8.50;;;5.07;;
55328;SDS011;41205;44.264;19.884;2022-11-25T04:50:53;10.45;;;6.00;;
55328;SDS011;41205;44.264;19.884;2022-11-25T04:53:19;8.25;;;5.38;;
55328;SDS011;41205;44.264;19.884;2022-11-25T04:55:44;7.43;;;5.40;;
55328;SDS011;41205;44.264;19.884;2022-11-25T04:58:10;9.10;;;5.88;;
55328;SDS011;41205;44.264;19.884;2022-11-25T05:00:36;9.50;;;5.97;;
55328;SDS011;41205;44.264;19.884;2022-11-25T05:03:02;10.18;;;8.80;;
55328;SDS011;41205;44.264;19.884;2022-11-25T05:05:28;7.00;;;5.22;;
55328;SDS011;41205;44.264;19.884;2022-11-25T05:07:54;11.63;;;6.20;;
55328;SDS011;41205;44.264;19.884;2022-11-25T05:10:20;7.85;;;5.18;;
55328;SDS011;41205;44.264;19.884;2022-11-25T05:12:46;7.65;;;6.68;;
55328;SDS011;41205;44.264;19.884;2022-11-25T05:15:12;9.68;;;5.43;;
55328;SDS011;41205;44.264;19.884;2022-11-25T05:17:38;10.50;;;5.88;;
55328;SDS011;41205;44.264;19.884;2022-11-25T05:20:04;8.98;;;5.60;;
55328;SDS011;41205;44.264;19.884;2022-11-25T05:22:31;7.07;;;4.82;;
55328;SDS011;41205;44.264;19.884;2022-11-25T05:24:57;9.13;;;6.20;;
55328;SDS011;41205;44.264;19.884;2022-11-25T05:27:23;7.55;;;5.75;;
55328;SDS011;41205;44.264;19.884;2022-11-25T05:29:50;9.35;;;6.00;;
55328;SDS011;41205;44.264;19.884;2022-11-25T05:32:16;9.38;;;5.25;;
55328;SDS011;41205;44.264;19.884;2022-11-25T05:34:42;9.68;;;5.80;;
55328;SDS011;41205;44.264;19.884;2022-11-25T05:37:08;9.45;;;5.78;;
55328;SDS011;41205;44.264;19.884;2022-11-25T05:39:36;15.70;;;5.95;;
55328;SDS011;41205;44.264;19.884;2022-11-25T05:42:02;10.43;;;4.85;;
55328;SDS011;41205;44.264;19.884;2022-11-25T05:44:28;9.60;;;5.85;;
55328;SDS011;41205;44.264;19.884;2022-11-25T05:46:54;10.85;;;5.60;;
55328;SDS011;41205;44.264;19.884;2022-11-25T05:49:19;9.85;;;5.72;;
55328;SDS011;41205;44.264;19.884;2022-11-25T05:51:46;11.80;;;5.32;;
55328;SDS011;41205;44.264;19.884;2022-11-25T05:54:12;9.20;;;5.70;;
55328;SDS011;41205;44.264;19.884;2022-11-25T05:56:38;12.98;;;8.00;;
55328;SDS011;41205;44.264;19.884;2022-11-25T05:59:04;10.98;;;6.03;;
55328;SDS011;41205;44.264;19.884;2022-11-25T06:01:31;9.55;;;6.70;;
55328;SDS011;41205;44.264;19.884;2022-11-25T06:04:01;9.38;;;5.55;;
55328;SDS011;41205;44.264;19.884;2022-11-25T06:06:28;7.65;;;6.50;;
55328;SDS011;41205;44.264;19.884;2022-11-25T06:08:54;8.02;;;6.15;;
55328;SDS011;41205;44.264;19.884;2022-11-25T06:11:20;11.25;;;6.90;;
55328;SDS011;41205;44.264;19.884;2022-11-25T06:13:45;10.23;;;8.70;;
55328;SDS011;41205;44.264;19.884;2022-11-25T06:16:15;10.95;;;8.98;;
55328;SDS011;41205;44.264;19.884;2022-11-25T06:18:43;13.27;;;11.07;;
55328;SDS011;41205;44.264;19.884;2022-11-25T06:21:09;12.63;;;11.18;;
55328;SDS011;41205;44.264;19.884;2022-11-25T06:23:36;9.85;;;7.97;;
55328;SDS011;41205;44.264;19.884;2022-11-25T06:26:03;9.48;;;6.15;;
55328;SDS011;41205;44.264;19.884;2022-11-25T06:28:28;8.73;;;6.38;;
55328;SDS011;41205;44.264;19.884;2022-11-25T06:30:54;11.02;;;7.43;;
55328;SDS011;41205;44.264;19.884;2022-11-25T06:33:20;45.13;;;25.02;;
55328;SDS011;41205;44.264;19.884;2022-11-25T06:35:46;29.15;;;19.08;;
55328;SDS011;41205;44.264;19.884;2022-11-25T06:38:11;25.65;;;15.18;;
55328;SDS011;41205;44.264;19.884;2022-11-25T06:40:37;13.73;;;8.68;;
55328;SDS011;41205;44.264;19.884;2022-11-25T06:43:03;70.65;;;57.40;;
55328;SDS011;41205;44.264;19.884;2022-11-25T06:45:29;51.08;;;44.22;;
55328;SDS011;41205;44.264;19.884;2022-11-25T06:47:55;17.88;;;14.80;;
55328;SDS011;41205;44.264;19.884;2022-11-25T06:50:21;10.52;;;9.02;;
55328;SDS011;41205;44.264;19.884;2022-11-25T06:52:47;10.85;;;7.70;;
55328;SDS011;41205;44.264;19.884;2022-11-25T06:55:13;8.45;;;6.15;;
55328;SDS011;41205;44.264;19.884;2022-11-25T06:57:38;11.48;;;5.72;;
55328;SDS011;41205;44.264;19.884;2022-11-25T07:00:04;8.52;;;6.13;;
55328;SDS011;41205;44.264;19.884;2022-11-25T07:02:31;11.98;;;8.48;;
55328;SDS011;41205;44.264;19.884;2022-11-25T07:04:57;11.40;;;7.07;;
55328;SDS011;41205;44.264;19.884;2022-11-25T07:07:22;10.07;;;8.50;;
55328;SDS011;41205;44.264;19.884;2022-11-25T07:09:48;9.60;;;7.53;;
55328;SDS011;41205;44.264;19.884;2022-11-25T07:12:14;12.20;;;8.60;;
55328;SDS011;41205;44.264;19.884;2022-11-25T07:14:39;12.57;;;7.72;;
55328;SDS011;41205;44.264;19.884;2022-11-25T07:17:05;14.75;;;9.30;;
55328;SDS011;41205;44.264;19.884;2022-11-25T07:19:31;26.88;;;18.33;;
55328;SDS011;41205;44.264;19.884;2022-11-25T07:21:59;29.85;;;18.63;;
55328;SDS011;41205;44.264;19.884;2022-11-25T07:24:25;37.40;;;22.23;;
55328;SDS011;41205;44.264;19.884;2022-11-25T07:26:51;148.43;;;82.18;;
55328;SDS011;41205;44.264;19.884;2022-11-25T07:29:17;31.83;;;20.63;;
55328;SDS011;41205;44.264;19.884;2022-11-25T07:31:44;144.90;;;95.03;;
55328;SDS011;41205;44.264;19.884;2022-11-25T07:34:11;37.72;;;26.35;;
55328;SDS011;41205;44.264;19.884;2022-11-25T07:36:37;13.68;;;10.43;;
55328;SDS011;41205;44.264;19.884;2022-11-25T07:39:05;12.35;;;9.45;;
55328;SDS011;41205;44.264;19.884;2022-11-25T07:41:53;15.75;;;8.02;;
55328;SDS011;41205;44.264;19.884;2022-11-25T07:44:19;13.95;;;8.90;;
55328;SDS011;41205;44.264;19.884;2022-11-25T07:46:46;14.30;;;8.98;;
55328;SDS011;41205;44.264;19.884;2022-11-25T07:49:14;13.93;;;7.57;;
55328;SDS011;41205;44.264;19.884;2022-11-25T07:51:43;12.15;;;9.27;;
55328;SDS011;41205;44.264;19.884;2022-11-25T07:54:11;11.90;;;8.18;;
55328;SDS011;41205;44.264;19.884;2022-11-25T07:56:38;13.35;;;8.95;;
55328;SDS011;41205;44.264;19.884;2022-11-25T07:59:06;13.00;;;10.57;;
55328;SDS011;41205;44.264;19.884;2022-11-25T08:01:35;9.88;;;8.13;;
55328;SDS011;41205;44.264;19.884;2022-11-25T08:04:01;10.77;;;7.55;;
55328;SDS011;41205;44.264;19.884;2022-11-25T08:06:27;11.30;;;7.53;;
55328;SDS011;41205;44.264;19.884;2022-11-25T08:08:54;12.02;;;8.57;;
55328;SDS011;41205;44.264;19.884;2022-11-25T08:11:25;12.68;;;7.78;;
55328;SDS011;41205;44.264;19.884;2022-11-25T08:13:53;12.73;;;6.85;;
55328;SDS011;41205;44.264;19.884;2022-11-25T08:16:20;10.88;;;5.68;;
55328;SDS011;41205;44.264;19.884;2022-11-25T08:18:47;9.57;;;5.97;;
55328;SDS011;41205;44.264;19.884;2022-11-25T08:21:13;7.65;;;5.90;;
55328;SDS011;41205;44.264;19.884;2022-11-25T08:23:40;11.73;;;7.45;;
55328;SDS011;41205;44.264;19.884;2022-11-25T08:26:13;13.30;;;10.93;;
55328;SDS011;41205;44.264;19.884;2022-11-25T08:28:44;27.27;;;21.48;;
55328;SDS011;41205;44.264;19.884;2022-11-25T08:31:13;10.02;;;6.80;;
55328;SDS011;41205;44.264;19.884;2022-11-25T08:33:41;11.32;;;5.90;;
55328;SDS011;41205;44.264;19.884;2022-11-25T08:36:08;10.45;;;6.85;;
55328;SDS011;41205;44.264;19.884;2022-11-25T08:38:34;10.23;;;5.43;;
55328;SDS011;41205;44.264;19.884;2022-11-25T08:41:01;8.48;;;5.18;;
55328;SDS011;41205;44.264;19.884;2022-11-25T08:43:27;10.27;;;5.57;;
55328;SDS011;41205;44.264;19.884;2022-11-25T08:45:53;8.73;;;5.43;;
55328;SDS011;41205;44.264;19.884;2022-11-25T08:48:19;8.95;;;5.15;;
55328;SDS011;41205;44.264;19.884;2022-11-25T08:50:47;8.23;;;5.75;;
55328;SDS011;41205;44.264;19.884;2022-11-25T08:53:17;6.80;;;4.28;;
55328;SDS011;41205;44.264;19.884;2022-11-25T08:55:43;11.38;;;5.00;;
55328;SDS011;41205;44.264;19.884;2022-11-25T08:58:09;28.65;;;25.48;;
55328;SDS011;41205;44.264;19.884;2022-11-25T09:00:37;9.38;;;5.72;;
55328;SDS011;41205;44.264;19.884;2022-11-25T09:03:03;8.20;;;5.75;;
55328;SDS011;41205;44.264;19.884;2022-11-25T09:05:29;12.00;;;7.43;;
55328;SDS011;41205;44.264;19.884;2022-11-25T09:08:00;204.10;;;181.80;;
55328;SDS011;41205;44.264;19.884;2022-11-25T09:10:27;29.83;;;25.58;;
55328;SDS011;41205;44.264;19.884;2022-11-25T09:12:53;38.42;;;34.30;;
55328;SDS011;41205;44.264;19.884;2022-11-25T09:15:19;150.80;;;131.30;;
55328;SDS011;41205;44.264;19.884;2022-11-25T09:17:45;23.42;;;21.10;;
55328;SDS011;41205;44.264;19.884;2022-11-25T09:20:11;5.95;;;4.00;;
55328;SDS011;41205;44.264;19.884;2022-11-25T09:22:36;27.45;;;24.58;;
55328;SDS011;41205;44.264;19.884;2022-11-25T09:25:02;32.22;;;28.88;;
55328;SDS011;41205;44.264;19.884;2022-11-25T09:27:29;27.55;;;23.55;;
55328;SDS011;41205;44.264;19.884;2022-11-25T09:29:55;7.85;;;5.95;;
55328;SDS011;41205;44.264;19.884;2022-11-25T09:32:21;6.53;;;3.78;;
55328;SDS011;41205;44.264;19.884;2022-11-25T09:34:46;11.32;;;7.43;;
55328;SDS011;41205;44.264;19.884;2022-11-25T09:37:12;10.13;;;6.90;;
55328;SDS011;41205;44.264;19.884;2022-11-25T09:39:38;16.02;;;12.70;;
55328;SDS011;41205;44.264;19.884;2022-11-25T09:53:51;11.05;;;7.22;;
55328;SDS011;41205;44.264;19.884;2022-11-25T10:01:41;7.60;;;4.35;;
55328;SDS011;41205;44.264;19.884;2022-11-25T10:04:28;4.85;;;2.97;;
55328;SDS011;41205;44.264;19.884;2022-11-25T10:07:02;6.70;;;4.10;;
55328;SDS011;41205;44.264;19.884;2022-11-25T10:09:30;7.13;;;3.67;;
55328;SDS011;41205;44.264;19.884;2022-11-25T10:12:02;11.05;;;6.15;;
55328;SDS011;41205;44.264;19.884;2022-11-25T10:14:59;21.00;;;8.63;;
55328;SDS011;41205;44.264;19.884;2022-11-25T10:17:32;6.72;;;4.40;;
55328;SDS011;41205;44.264;19.884;2022-11-25T10:20:18;11.05;;;6.97;;
55328;SDS011;41205;44.264;19.884;2022-11-25T10:22:51;8.43;;;5.43;;
55328;SDS011;41205;44.264;19.884;2022-11-25T10:25:24;12.77;;;8.50;;
55328;SDS011;41205;44.264;19.884;2022-11-25T10:31:05;12.38;;;9.52;;
55328;SDS011;41205;44.264;19.884;2022-11-25T10:33:44;8.48;;;5.40;;
55328;SDS011;41205;44.264;19.884;2022-11-25T10:36:19;13.50;;;8.85;;
55328;SDS011;41205;44.264;19.884;2022-11-25T10:39:09;24.38;;;14.30;;
55328;SDS011;41205;44.264;19.884;2022-11-25T10:41:54;18.55;;;14.77;;
55328;SDS011;41205;44.264;19.884;2022-11-25T10:49:49;7.10;;;5.65;;
55328;SDS011;41205;44.264;19.884;2022-11-25T10:52:26;11.65;;;6.75;;
55328;SDS011;41205;44.264;19.884;2022-11-25T10:55:07;18.33;;;9.18;;
55328;SDS011;41205;44.264;19.884;2022-11-25T10:57:40;12.57;;;6.10;;
55328;SDS011;41205;44.264;19.884;2022-11-25T11:00:10;15.52;;;9.63;;
55328;SDS011;41205;44.264;19.884;2022-11-25T11:02:56;11.55;;;7.30;;
55328;SDS011;41205;44.264;19.884;2022-11-25T11:05:28;11.18;;;7.03;;
55328;SDS011;41205;44.264;19.884;2022-11-25T11:10:42;10.90;;;7.05;;
55328;SDS011;41205;44.264;19.884;2022-11-25T11:15:52;6.90;;;4.55;;
55328;SDS011;41205;44.264;19.884;2022-11-25T11:18:26;8.45;;;5.90;;
55328;SDS011;41205;44.264;19.884;2022-11-25T11:20:56;6.80;;;4.65;;
55328;SDS011;41205;44.264;19.884;2022-11-25T11:23:24;10.25;;;6.32;;
55328;SDS011;41205;44.264;19.884;2022-11-25T11:26:01;8.13;;;5.03;;
55328;SDS011;41205;44.264;19.884;2022-11-25T11:31:05;15.70;;;11.43;;
55328;SDS011;41205;44.264;19.884;2022-11-25T11:41:39;10.30;;;9.20;;
55328;SDS011;41205;44.264;19.884;2022-11-25T11:52:37;6.45;;;4.05;;
55328;SDS011;41205;44.264;19.884;2022-11-25T11:55:18;4.13;;;2.80;;
55328;SDS011;41205;44.264;19.884;2022-11-25T11:58:01;8.07;;;4.35;;
55328;SDS011;41205;44.264;19.884;2022-11-25T12:00:41;5.93;;;3.67;;
55328;SDS011;41205;44.264;19.884;2022-11-25T12:03:15;8.73;;;6.13;;
55328;SDS011;41205;44.264;19.884;2022-11-25T12:05:45;10.90;;;6.47;;
55328;SDS011;41205;44.264;19.884;2022-11-25T12:08:28;9.20;;;6.53;;
55328;SDS011;41205;44.264;19.884;2022-11-25T12:11:01;8.18;;;4.93;;
55328;SDS011;41205;44.264;19.884;2022-11-25T12:16:20;7.40;;;4.03;;
55328;SDS011;41205;44.264;19.884;2022-11-25T12:24:21;7.63;;;6.78;;
55328;SDS011;41205;44.264;19.884;2022-11-25T12:41:03;22.30;;;15.52;;
55328;SDS011;41205;44.264;19.884;2022-11-25T12:49:17;18.25;;;13.90;;
55328;SDS011;41205;44.264;19.884;2022-11-25T13:16:55;19.75;;;12.20;;
55328;SDS011;41205;44.264;19.884;2022-11-25T13:19:22;18.83;;;14.10;;
55328;SDS011;41205;44.264;19.884;2022-11-25T13:22:00;16.10;;;11.30;;
55328;SDS011;41205;44.264;19.884;2022-11-25T13:26:59;6.38;;;4.05;;
55328;SDS011;41205;44.264;19.884;2022-11-25T13:31:58;6.22;;;3.95;;
55328;SDS011;41205;44.264;19.884;2022-11-25T13:36:59;20.50;;;13.45;;
55328;SDS011;41205;44.264;19.884;2022-11-25T13:39:36;5.32;;;3.80;;
55328;SDS011;41205;44.264;19.884;2022-11-25T13:42:09;7.18;;;4.25;;
55328;SDS011;41205;44.264;19.884;2022-11-25T13:50:05;28.77;;;19.65;;
55328;SDS011;41205;44.264;19.884;2022-11-25T13:55:30;33.17;;;20.98;;
55328;SDS011;41205;44.264;19.884;2022-11-25T14:00:48;34.90;;;22.67;;
55328;SDS011;41205;44.264;19.884;2022-11-25T14:03:45;20.67;;;12.38;;
55328;SDS011;41205;44.264;19.884;2022-11-25T14:08:54;29.73;;;19.90;;
55328;SDS011;41205;44.264;19.884;2022-11-25T14:14:24;14.15;;;11.07;;
55328;SDS011;41205;44.264;19.884;2022-11-25T14:17:24;29.25;;;18.45;;
55328;SDS011;41205;44.264;19.884;2022-11-25T14:20:04;24.95;;;15.68;;
55328;SDS011;41205;44.264;19.884;2022-11-25T14:28:25;51.80;;;31.33;;
55328;SDS011;41205;44.264;19.884;2022-11-25T14:31:02;36.85;;;22.95;;
55328;SDS011;41205;44.264;19.884;2022-11-25T14:33:33;34.10;;;25.95;;
55328;SDS011;41205;44.264;19.884;2022-11-25T14:36:17;45.28;;;30.25;;
55328;SDS011;41205;44.264;19.884;2022-11-25T14:41:37;63.95;;;39.50;;
55328;SDS011;41205;44.264;19.884;2022-11-25T14:44:12;73.28;;;45.97;;
55328;SDS011;41205;44.264;19.884;2022-11-25T14:46:51;120.13;;;79.53;;
55328;SDS011;41205;44.264;19.884;2022-11-25T14:49:22;88.53;;;64.28;;
55328;SDS011;41205;44.264;19.884;2022-11-25T14:51:49;63.72;;;44.08;;
55328;SDS011;41205;44.264;19.884;2022-11-25T14:54:19;57.53;;;40.88;;
55328;SDS011;41205;44.264;19.884;2022-11-25T14:56:46;78.97;;;55.97;;
55328;SDS011;41205;44.264;19.884;2022-11-25T14:59:12;76.57;;;51.83;;
55328;SDS011;41205;44.264;19.884;2022-11-25T15:01:39;82.07;;;53.53;;
55328;SDS011;41205;44.264;19.884;2022-11-25T15:07:13;61.72;;;44.70;;
55328;SDS011;41205;44.264;19.884;2022-11-25T15:09:42;82.60;;;56.35;;
55328;SDS011;41205;44.264;19.884;2022-11-25T15:12:11;112.82;;;77.72;;
55328;SDS011;41205;44.264;19.884;2022-11-25T15:14:41;132.90;;;93.15;;
55328;SDS011;41205;44.264;19.884;2022-11-25T15:17:30;130.60;;;92.38;;
55328;SDS011;41205;44.264;19.884;2022-11-25T15:20:00;185.23;;;131.68;;
55328;SDS011;41205;44.264;19.884;2022-11-25T15:22:33;148.98;;;99.93;;
55328;SDS011;41205;44.264;19.884;2022-11-25T15:25:06;255.48;;;174.35;;
55328;SDS011;41205;44.264;19.884;2022-11-25T15:27:42;250.65;;;170.18;;
55328;SDS011;41205;44.264;19.884;2022-11-25T15:30:19;452.58;;;316.10;;
55328;SDS011;41205;44.264;19.884;2022-11-25T15:32:49;470.10;;;338.05;;
55328;SDS011;41205;44.264;19.884;2022-11-25T15:35:17;499.83;;;375.02;;
55328;SDS011;41205;44.264;19.884;2022-11-25T15:37:45;317.50;;;235.63;;
55328;SDS011;41205;44.264;19.884;2022-11-25T15:40:31;251.48;;;182.27;;
55328;SDS011;41205;44.264;19.884;2022-11-25T15:43:03;262.90;;;189.10;;
55328;SDS011;41205;44.264;19.884;2022-11-25T15:45:33;241.10;;;176.13;;
55328;SDS011;41205;44.264;19.884;2022-11-25T15:48:18;249.52;;;177.65;;
55328;SDS011;41205;44.264;19.884;2022-11-25T15:50:59;193.15;;;141.85;;
55328;SDS011;41205;44.264;19.884;2022-11-25T15:53:31;154.18;;;99.85;;
55328;SDS011;41205;44.264;19.884;2022-11-25T15:56:01;146.30;;;89.55;;
55328;SDS011;41205;44.264;19.884;2022-11-25T15:58:29;155.63;;;93.13;;
55328;SDS011;41205;44.264;19.884;2022-11-25T16:01:15;196.38;;;131.65;;
55328;SDS011;41205;44.264;19.884;2022-11-25T16:03:41;119.65;;;74.68;;
55328;SDS011;41205;44.264;19.884;2022-11-25T16:06:24;94.55;;;61.30;;
55328;SDS011;41205;44.264;19.884;2022-11-25T16:09:01;84.97;;;60.13;;
55328;SDS011;41205;44.264;19.884;2022-11-25T16:11:29;106.95;;;73.55;;
55328;SDS011;41205;44.264;19.884;2022-11-25T16:16:51;82.63;;;56.63;;
55328;SDS011;41205;44.264;19.884;2022-11-25T16:19:21;94.03;;;63.20;;
55328;SDS011;41205;44.264;19.884;2022-11-25T16:21:58;117.45;;;81.90;;
55328;SDS011;41205;44.264;19.884;2022-11-25T16:29:46;93.80;;;62.15;;
55328;SDS011;41205;44.264;19.884;2022-11-25T16:32:19;88.00;;;60.33;;
55328;SDS011;41205;44.264;19.884;2022-11-25T16:34:53;67.20;;;45.30;;
55328;SDS011;41205;44.264;19.884;2022-11-25T16:37:21;91.57;;;62.67;;
55328;SDS011;41205;44.264;19.884;2022-11-25T16:39:48;293.63;;;227.25;;
55328;SDS011;41205;44.264;19.884;2022-11-25T16:42:18;132.93;;;101.80;;
55328;SDS011;41205;44.264;19.884;2022-11-25T16:44:46;105.03;;;79.15;;
55328;SDS011;41205;44.264;19.884;2022-11-25T16:47:13;108.50;;;74.95;;
55328;SDS011;41205;44.264;19.884;2022-11-25T16:49:39;132.15;;;100.40;;
55328;SDS011;41205;44.264;19.884;2022-11-25T16:52:05;159.70;;;120.00;;
55328;SDS011;41205;44.264;19.884;2022-11-25T16:54:30;172.52;;;123.93;;
55328;SDS011;41205;44.264;19.884;2022-11-25T16:56:57;127.07;;;90.07;;
55328;SDS011;41205;44.264;19.884;2022-11-25T16:59:36;99.38;;;72.57;;
55328;SDS011;41205;44.264;19.884;2022-11-25T17:02:15;67.85;;;48.58;;
55328;SDS011;41205;44.264;19.884;2022-11-25T17:04:45;64.40;;;46.38;;
55328;SDS011;41205;44.264;19.884;2022-11-25T17:07:12;56.65;;;41.88;;